sensor_id;sensor_type;location;lat;lon;timestamp;P1;durP1;ratioP1;P2;durP2;ratioP2
24421;SDS011;12600;53.326;-6.298;2023-07-31T00:00:01;5.07;;;1.90;;
24421;SDS011;12600;53.326;-6.298;2023-07-31T00:02:53;5.50;;;1.70;;
24421;SDS011;12600;53.326;-6.298;2023-07-31T00:05:45;4.80;;;1.67;;
24421;SDS011;12600;53.326;-6.298;2023-07-31T00:08:36;4.95;;;1.60;;
24421;SDS011;12600;53.326;-6.298;2023-07-31T00:11:25;4.47;;;1.50;;
24421;SDS011;12600;53.326;-6.298;2023-07-31T00:14:14;5.53;;;1.70;;
24421;SDS011;12600;53.326;-6.298;2023-07-31T00:17:04;6.10;;;1.70;;
24421;SDS011;12600;53.326;-6.298;2023-07-31T00:19:53;6.53;;;1.70;;
24421;SDS011;12600;53.326;-6.298;2023-07-31T00:22:43;3.45;;;1.67;;
24421;SDS011;12600;53.326;-6.298;2023-07-31T00:25:33;4.60;;;2.38;;
24421;SDS011;12600;53.326;-6.298;2023-07-31T00:28:23;4.63;;;1.45;;
24421;SDS011;12600;53.326;-6.298;2023-07-31T00:31:14;4.55;;;1.88;;
24421;SDS011;12600;53.326;-6.298;2023-07-31T00:34:03;6.00;;;1.85;;
24421;SDS011;12600;53.326;-6.298;2023-07-31T00:36:55;5.72;;;1.88;;
24421;SDS011;12600;53.326;-6.298;2023-07-31T00:39:44;4.93;;;1.50;;
24421;SDS011;12600;53.326;-6.298;2023-07-31T00:42:35;4.93;;;1.35;;
24421;SDS011;12600;53.326;-6.298;2023-07-31T00:45:24;5.63;;;1.88;;
24421;SDS011;12600;53.326;-6.298;2023-07-31T00:48:14;4.10;;;1.60;;
24421;SDS011;12600;53.326;-6.298;2023-07-31T00:51:04;6.10;;;1.52;;
24421;SDS011;12600;53.326;-6.298;2023-07-31T00:53:54;3.95;;;1.67;;
24421;SDS011;12600;53.326;-6.298;2023-07-31T00:56:45;4.00;;;1.58;;
24421;SDS011;12600;53.326;-6.298;2023-07-31T00:59:37;4.80;;;1.42;;
24421;SDS011;12600;53.326;-6.298;2023-07-31T01:02:27;3.67;;;1.67;;
24421;SDS011;12600;53.326;-6.298;2023-07-31T01:05:17;4.75;;;1.35;;
24421;SDS011;12600;53.326;-6.298;2023-07-31T01:08:15;3.70;;;1.60;;
24421;SDS011;12600;53.326;-6.298;2023-07-31T01:11:14;2.78;;;1.48;;
24421;SDS011;12600;53.326;-6.298;2023-07-31T01:14:08;4.30;;;1.52;;
24421;SDS011;12600;53.326;-6.298;2023-07-31T01:16:59;3.53;;;1.40;;
24421;SDS011;12600;53.326;-6.298;2023-07-31T01:19:50;3.53;;;1.30;;
24421;SDS011;12600;53.326;-6.298;2023-07-31T01:22:54;5.75;;;1.55;;
24421;SDS011;12600;53.326;-6.298;2023-07-31T01:26:05;3.03;;;1.40;;
24421;SDS011;12600;53.326;-6.298;2023-07-31T01:29:01;2.53;;;1.13;;
24421;SDS011;12600;53.326;-6.298;2023-07-31T01:31:56;4.10;;;1.27;;
24421;SDS011;12600;53.326;-6.298;2023-07-31T01:34:49;3.78;;;1.40;;
24421;SDS011;12600;53.326;-6.298;2023-07-31T01:37:39;2.67;;;1.40;;
24421;SDS011;12600;53.326;-6.298;2023-07-31T01:40:28;3.65;;;1.30;;
24421;SDS011;12600;53.326;-6.298;2023-07-31T01:43:19;5.47;;;1.98;;
24421;SDS011;12600;53.326;-6.298;2023-07-31T01:46:09;4.20;;;1.17;;
24421;SDS011;12600;53.326;-6.298;2023-07-31T01:48:58;6.53;;;1.60;;
24421;SDS011;12600;53.326;-6.298;2023-07-31T01:51:48;2.35;;;0.95;;
24421;SDS011;12600;53.326;-6.298;2023-07-31T01:54:37;4.63;;;1.40;;
24421;SDS011;12600;53.326;-6.298;2023-07-31T01:57:27;4.20;;;1.58;;
24421;SDS011;12600;53.326;-6.298;2023-07-31T02:00:18;4.93;;;1.33;;
24421;SDS011;12600;53.326;-6.298;2023-07-31T02:03:08;4.63;;;1.42;;
24421;SDS011;12600;53.326;-6.298;2023-07-31T02:05:57;3.47;;;1.50;;
24421;SDS011;12600;53.326;-6.298;2023-07-31T02:08:47;4.22;;;1.30;;
24421;SDS011;12600;53.326;-6.298;2023-07-31T02:11:36;4.38;;;1.30;;
24421;SDS011;12600;53.326;-6.298;2023-07-31T02:14:26;3.30;;;1.52;;
24421;SDS011;12600;53.326;-6.298;2023-07-31T02:17:16;3.15;;;1.10;;
24421;SDS011;12600;53.326;-6.298;2023-07-31T02:20:06;4.53;;;1.58;;
24421;SDS011;12600;53.326;-6.298;2023-07-31T02:22:57;5.30;;;1.58;;
24421;SDS011;12600;53.326;-6.298;2023-07-31T02:25:46;3.40;;;1.40;;
24421;SDS011;12600;53.326;-6.298;2023-07-31T02:28:35;3.20;;;1.30;;
24421;SDS011;12600;53.326;-6.298;2023-07-31T02:31:25;4.63;;;1.25;;
24421;SDS011;12600;53.326;-6.298;2023-07-31T02:34:16;3.45;;;1.30;;
24421;SDS011;12600;53.326;-6.298;2023-07-31T02:37:06;2.53;;;1.30;;
24421;SDS011;12600;53.326;-6.298;2023-07-31T02:39:55;3.35;;;1.20;;
24421;SDS011;12600;53.326;-6.298;2023-07-31T02:42:48;4.22;;;1.33;;
24421;SDS011;12600;53.326;-6.298;2023-07-31T02:45:37;3.15;;;1.10;;
24421;SDS011;12600;53.326;-6.298;2023-07-31T02:48:26;3.03;;;1.00;;
24421;SDS011;12600;53.326;-6.298;2023-07-31T02:51:17;4.65;;;1.20;;
24421;SDS011;12600;53.326;-6.298;2023-07-31T02:54:08;2.77;;;1.00;;
24421;SDS011;12600;53.326;-6.298;2023-07-31T02:56:57;3.40;;;0.90;;
24421;SDS011;12600;53.326;-6.298;2023-07-31T02:59:47;2.20;;;0.80;;
24421;SDS011;12600;53.326;-6.298;2023-07-31T03:02:37;2.55;;;0.90;;
24421;SDS011;12600;53.326;-6.298;2023-07-31T03:05:26;3.08;;;0.90;;
24421;SDS011;12600;53.326;-6.298;2023-07-31T03:08:17;3.92;;;1.10;;
24421;SDS011;12600;53.326;-6.298;2023-07-31T03:11:06;2.83;;;1.00;;
24421;SDS011;12600;53.326;-6.298;2023-07-31T03:13:56;3.25;;;0.90;;
24421;SDS011;12600;53.326;-6.298;2023-07-31T03:16:45;2.05;;;0.63;;
24421;SDS011;12600;53.326;-6.298;2023-07-31T03:19:34;2.05;;;0.70;;
24421;SDS011;12600;53.326;-6.298;2023-07-31T03:22:24;3.10;;;0.85;;
24421;SDS011;12600;53.326;-6.298;2023-07-31T03:25:16;2.97;;;0.93;;
24421;SDS011;12600;53.326;-6.298;2023-07-31T03:28:05;1.80;;;0.70;;
24421;SDS011;12600;53.326;-6.298;2023-07-31T03:30:56;2.55;;;1.00;;
24421;SDS011;12600;53.326;-6.298;2023-07-31T03:33:45;2.97;;;0.90;;
24421;SDS011;12600;53.326;-6.298;2023-07-31T03:36:35;3.63;;;1.00;;
24421;SDS011;12600;53.326;-6.298;2023-07-31T03:39:26;1.50;;;0.85;;
24421;SDS011;12600;53.326;-6.298;2023-07-31T03:42:16;2.85;;;0.80;;
24421;SDS011;12600;53.326;-6.298;2023-07-31T03:45:06;1.60;;;0.80;;
24421;SDS011;12600;53.326;-6.298;2023-07-31T03:47:57;2.22;;;0.60;;
24421;SDS011;12600;53.326;-6.298;2023-07-31T03:50:47;2.30;;;0.73;;
24421;SDS011;12600;53.326;-6.298;2023-07-31T03:53:36;1.30;;;0.80;;
24421;SDS011;12600;53.326;-6.298;2023-07-31T03:56:25;2.65;;;1.05;;
24421;SDS011;12600;53.326;-6.298;2023-07-31T03:59:16;1.83;;;0.80;;
24421;SDS011;12600;53.326;-6.298;2023-07-31T04:02:05;2.33;;;0.70;;
24421;SDS011;12600;53.326;-6.298;2023-07-31T04:04:54;2.42;;;0.90;;
24421;SDS011;12600;53.326;-6.298;2023-07-31T04:07:44;2.15;;;0.80;;
24421;SDS011;12600;53.326;-6.298;2023-07-31T04:10:33;2.67;;;0.82;;
24421;SDS011;12600;53.326;-6.298;2023-07-31T04:13:22;3.47;;;0.90;;
24421;SDS011;12600;53.326;-6.298;2023-07-31T04:16:16;1.90;;;0.80;;
24421;SDS011;12600;53.326;-6.298;2023-07-31T04:19:05;1.90;;;0.70;;
24421;SDS011;12600;53.326;-6.298;2023-07-31T04:21:54;1.60;;;0.80;;
24421;SDS011;12600;53.326;-6.298;2023-07-31T04:24:44;2.22;;;0.68;;
24421;SDS011;12600;53.326;-6.298;2023-07-31T04:27:33;2.10;;;0.95;;
24421;SDS011;12600;53.326;-6.298;2023-07-31T04:30:22;1.83;;;1.05;;
24421;SDS011;12600;53.326;-6.298;2023-07-31T04:33:14;1.52;;;0.88;;
24421;SDS011;12600;53.326;-6.298;2023-07-31T04:36:04;4.72;;;0.80;;
24421;SDS011;12600;53.326;-6.298;2023-07-31T04:38:54;1.67;;;0.90;;
24421;SDS011;12600;53.326;-6.298;2023-07-31T04:41:43;4.63;;;1.30;;
24421;SDS011;12600;53.326;-6.298;2023-07-31T04:44:32;3.20;;;0.98;;
24421;SDS011;12600;53.326;-6.298;2023-07-31T04:47:22;2.28;;;0.85;;
24421;SDS011;12600;53.326;-6.298;2023-07-31T04:50:12;3.55;;;0.80;;
24421;SDS011;12600;53.326;-6.298;2023-07-31T04:53:01;4.50;;;0.80;;
24421;SDS011;12600;53.326;-6.298;2023-07-31T04:55:51;1.73;;;0.80;;
24421;SDS011;12600;53.326;-6.298;2023-07-31T04:58:40;1.98;;;0.80;;
24421;SDS011;12600;53.326;-6.298;2023-07-31T05:01:29;1.42;;;0.82;;
24421;SDS011;12600;53.326;-6.298;2023-07-31T05:04:18;1.35;;;0.70;;
24421;SDS011;12600;53.326;-6.298;2023-07-31T05:07:09;2.83;;;0.63;;
24421;SDS011;12600;53.326;-6.298;2023-07-31T05:09:59;1.30;;;0.60;;
24421;SDS011;12600;53.326;-6.298;2023-07-31T05:12:48;2.90;;;0.75;;
24421;SDS011;12600;53.326;-6.298;2023-07-31T05:15:37;1.88;;;0.80;;
24421;SDS011;12600;53.326;-6.298;2023-07-31T05:18:27;2.30;;;0.82;;
24421;SDS011;12600;53.326;-6.298;2023-07-31T05:21:16;5.53;;;1.10;;
24421;SDS011;12600;53.326;-6.298;2023-07-31T05:24:06;4.80;;;1.40;;
24421;SDS011;12600;53.326;-6.298;2023-07-31T05:26:56;4.95;;;1.20;;
24421;SDS011;12600;53.326;-6.298;2023-07-31T05:29:45;5.25;;;1.27;;
24421;SDS011;12600;53.326;-6.298;2023-07-31T05:32:34;3.97;;;1.45;;
24421;SDS011;12600;53.326;-6.298;2023-07-31T05:35:24;4.25;;;1.40;;
24421;SDS011;12600;53.326;-6.298;2023-07-31T05:38:13;5.15;;;1.75;;
24421;SDS011;12600;53.326;-6.298;2023-07-31T05:41:04;5.75;;;1.83;;
24421;SDS011;12600;53.326;-6.298;2023-07-31T05:43:53;6.60;;;2.10;;
24421;SDS011;12600;53.326;-6.298;2023-07-31T05:46:43;4.18;;;1.75;;
24421;SDS011;12600;53.326;-6.298;2023-07-31T05:49:32;7.05;;;2.17;;
24421;SDS011;12600;53.326;-6.298;2023-07-31T05:52:23;11.07;;;3.05;;
24421;SDS011;12600;53.326;-6.298;2023-07-31T05:58:06;6.88;;;2.38;;
24421;SDS011;12600;53.326;-6.298;2023-07-31T06:00:55;8.43;;;2.60;;
24421;SDS011;12600;53.326;-6.298;2023-07-31T06:03:45;6.38;;;2.50;;
24421;SDS011;12600;53.326;-6.298;2023-07-31T06:06:34;7.32;;;2.40;;
24421;SDS011;12600;53.326;-6.298;2023-07-31T06:09:26;6.88;;;2.53;;
24421;SDS011;12600;53.326;-6.298;2023-07-31T06:12:15;7.82;;;2.60;;
24421;SDS011;12600;53.326;-6.298;2023-07-31T06:15:08;8.00;;;2.50;;
24421;SDS011;12600;53.326;-6.298;2023-07-31T06:17:58;7.93;;;2.53;;
24421;SDS011;12600;53.326;-6.298;2023-07-31T06:20:52;9.90;;;3.17;;
24421;SDS011;12600;53.326;-6.298;2023-07-31T06:23:41;9.05;;;3.47;;
24421;SDS011;12600;53.326;-6.298;2023-07-31T06:26:31;12.68;;;3.38;;
24421;SDS011;12600;53.326;-6.298;2023-07-31T06:29:24;11.05;;;3.05;;
24421;SDS011;12600;53.326;-6.298;2023-07-31T06:32:14;10.43;;;3.20;;
24421;SDS011;12600;53.326;-6.298;2023-07-31T06:35:04;13.18;;;3.83;;
24421;SDS011;12600;53.326;-6.298;2023-07-31T06:37:54;8.98;;;3.10;;
24421;SDS011;12600;53.326;-6.298;2023-07-31T06:40:46;11.38;;;3.42;;
24421;SDS011;12600;53.326;-6.298;2023-07-31T06:43:36;13.25;;;3.40;;
24421;SDS011;12600;53.326;-6.298;2023-07-31T06:46:27;10.60;;;2.95;;
24421;SDS011;12600;53.326;-6.298;2023-07-31T06:49:21;10.10;;;3.00;;
24421;SDS011;12600;53.326;-6.298;2023-07-31T06:52:14;8.43;;;2.63;;
24421;SDS011;12600;53.326;-6.298;2023-07-31T06:55:15;12.18;;;3.47;;
24421;SDS011;12600;53.326;-6.298;2023-07-31T06:58:17;7.13;;;2.55;;
24421;SDS011;12600;53.326;-6.298;2023-07-31T07:01:09;10.57;;;2.58;;
24421;SDS011;12600;53.326;-6.298;2023-07-31T07:03:58;10.38;;;2.90;;
24421;SDS011;12600;53.326;-6.298;2023-07-31T07:06:49;8.10;;;2.72;;
24421;SDS011;12600;53.326;-6.298;2023-07-31T07:09:39;7.60;;;2.45;;
24421;SDS011;12600;53.326;-6.298;2023-07-31T07:12:28;6.70;;;2.28;;
24421;SDS011;12600;53.326;-6.298;2023-07-31T07:15:22;10.73;;;2.70;;
24421;SDS011;12600;53.326;-6.298;2023-07-31T07:18:12;8.45;;;2.60;;
24421;SDS011;12600;53.326;-6.298;2023-07-31T07:21:01;9.20;;;2.92;;
24421;SDS011;12600;53.326;-6.298;2023-07-31T07:23:52;11.25;;;3.03;;
24421;SDS011;12600;53.326;-6.298;2023-07-31T07:26:41;12.63;;;3.25;;
24421;SDS011;12600;53.326;-6.298;2023-07-31T07:29:30;9.48;;;3.20;;
24421;SDS011;12600;53.326;-6.298;2023-07-31T07:32:20;10.13;;;3.28;;
24421;SDS011;12600;53.326;-6.298;2023-07-31T07:35:10;7.78;;;2.40;;
24421;SDS011;12600;53.326;-6.298;2023-07-31T07:38:00;10.00;;;3.05;;
24421;SDS011;12600;53.326;-6.298;2023-07-31T07:40:52;9.18;;;3.20;;
24421;SDS011;12600;53.326;-6.298;2023-07-31T07:43:41;12.10;;;3.30;;
24421;SDS011;12600;53.326;-6.298;2023-07-31T07:46:30;8.77;;;2.72;;
24421;SDS011;12600;53.326;-6.298;2023-07-31T07:49:20;11.75;;;3.17;;
24421;SDS011;12600;53.326;-6.298;2023-07-31T07:52:10;12.45;;;4.10;;
24421;SDS011;12600;53.326;-6.298;2023-07-31T07:55:00;10.63;;;3.03;;
24421;SDS011;12600;53.326;-6.298;2023-07-31T07:57:52;10.70;;;2.88;;
24421;SDS011;12600;53.326;-6.298;2023-07-31T08:00:41;4.63;;;2.05;;
24421;SDS011;12600;53.326;-6.298;2023-07-31T08:03:36;7.68;;;2.35;;
24421;SDS011;12600;53.326;-6.298;2023-07-31T08:06:25;8.50;;;2.13;;
24421;SDS011;12600;53.326;-6.298;2023-07-31T08:09:16;6.65;;;2.05;;
24421;SDS011;12600;53.326;-6.298;2023-07-31T08:12:06;8.73;;;2.20;;
24421;SDS011;12600;53.326;-6.298;2023-07-31T08:14:57;7.97;;;3.03;;
24421;SDS011;12600;53.326;-6.298;2023-07-31T08:17:48;6.55;;;1.90;;
24421;SDS011;12600;53.326;-6.298;2023-07-31T08:20:37;7.50;;;2.20;;
24421;SDS011;12600;53.326;-6.298;2023-07-31T08:23:26;8.57;;;2.75;;
24421;SDS011;12600;53.326;-6.298;2023-07-31T08:26:16;7.45;;;2.00;;
24421;SDS011;12600;53.326;-6.298;2023-07-31T08:29:06;7.72;;;1.67;;
24421;SDS011;12600;53.326;-6.298;2023-07-31T08:31:56;13.68;;;3.15;;
24421;SDS011;12600;53.326;-6.298;2023-07-31T08:34:46;7.30;;;2.40;;
24421;SDS011;12600;53.326;-6.298;2023-07-31T08:37:37;12.75;;;2.80;;
24421;SDS011;12600;53.326;-6.298;2023-07-31T08:40:27;10.35;;;2.20;;
24421;SDS011;12600;53.326;-6.298;2023-07-31T08:43:17;11.90;;;2.80;;
24421;SDS011;12600;53.326;-6.298;2023-07-31T08:46:08;13.80;;;3.53;;
24421;SDS011;12600;53.326;-6.298;2023-07-31T08:49:00;11.63;;;2.55;;
24421;SDS011;12600;53.326;-6.298;2023-07-31T08:51:52;10.80;;;2.42;;
24421;SDS011;12600;53.326;-6.298;2023-07-31T08:54:45;12.57;;;2.97;;
24421;SDS011;12600;53.326;-6.298;2023-07-31T08:57:35;14.68;;;2.70;;
24421;SDS011;12600;53.326;-6.298;2023-07-31T09:00:25;10.05;;;2.50;;
24421;SDS011;12600;53.326;-6.298;2023-07-31T09:03:16;9.75;;;2.47;;
24421;SDS011;12600;53.326;-6.298;2023-07-31T09:06:08;8.07;;;2.10;;
24421;SDS011;12600;53.326;-6.298;2023-07-31T09:08:58;10.73;;;2.30;;
24421;SDS011;12600;53.326;-6.298;2023-07-31T09:11:49;9.13;;;2.50;;
24421;SDS011;12600;53.326;-6.298;2023-07-31T09:14:39;14.23;;;2.60;;
24421;SDS011;12600;53.326;-6.298;2023-07-31T09:17:30;8.27;;;2.60;;
24421;SDS011;12600;53.326;-6.298;2023-07-31T09:20:21;15.20;;;2.90;;
24421;SDS011;12600;53.326;-6.298;2023-07-31T09:23:13;11.43;;;2.72;;
24421;SDS011;12600;53.326;-6.298;2023-07-31T09:26:03;16.00;;;2.70;;
24421;SDS011;12600;53.326;-6.298;2023-07-31T09:28:53;10.57;;;2.50;;
24421;SDS011;12600;53.326;-6.298;2023-07-31T09:31:42;18.67;;;3.13;;
24421;SDS011;12600;53.326;-6.298;2023-07-31T09:34:37;13.77;;;2.90;;
24421;SDS011;12600;53.326;-6.298;2023-07-31T09:37:28;12.68;;;2.67;;
24421;SDS011;12600;53.326;-6.298;2023-07-31T09:40:28;12.55;;;2.45;;
24421;SDS011;12600;53.326;-6.298;2023-07-31T09:43:19;7.82;;;2.78;;
24421;SDS011;12600;53.326;-6.298;2023-07-31T09:46:13;11.73;;;3.17;;
24421;SDS011;12600;53.326;-6.298;2023-07-31T09:49:03;9.93;;;2.42;;
24421;SDS011;12600;53.326;-6.298;2023-07-31T09:51:56;9.25;;;2.72;;
24421;SDS011;12600;53.326;-6.298;2023-07-31T09:54:45;11.65;;;2.63;;
24421;SDS011;12600;53.326;-6.298;2023-07-31T09:57:37;11.98;;;3.25;;
24421;SDS011;12600;53.326;-6.298;2023-07-31T10:00:30;14.38;;;2.95;;
24421;SDS011;12600;53.326;-6.298;2023-07-31T10:03:20;11.57;;;2.90;;
24421;SDS011;12600;53.326;-6.298;2023-07-31T10:06:10;15.25;;;3.17;;
24421;SDS011;12600;53.326;-6.298;2023-07-31T10:09:00;8.80;;;3.47;;
24421;SDS011;12600;53.326;-6.298;2023-07-31T10:11:51;11.32;;;3.17;;
24421;SDS011;12600;53.326;-6.298;2023-07-31T10:14:49;13.10;;;3.40;;
24421;SDS011;12600;53.326;-6.298;2023-07-31T10:17:40;14.52;;;3.15;;
24421;SDS011;12600;53.326;-6.298;2023-07-31T10:20:30;9.50;;;2.15;;
24421;SDS011;12600;53.326;-6.298;2023-07-31T10:23:20;9.02;;;2.63;;
24421;SDS011;12600;53.326;-6.298;2023-07-31T10:26:11;10.00;;;2.80;;
24421;SDS011;12600;53.326;-6.298;2023-07-31T10:29:02;13.43;;;2.78;;
24421;SDS011;12600;53.326;-6.298;2023-07-31T10:31:54;13.18;;;3.28;;
24421;SDS011;12600;53.326;-6.298;2023-07-31T10:34:46;15.13;;;3.30;;
24421;SDS011;12600;53.326;-6.298;2023-07-31T10:37:37;12.23;;;2.83;;
24421;SDS011;12600;53.326;-6.298;2023-07-31T10:40:29;12.60;;;2.78;;
24421;SDS011;12600;53.326;-6.298;2023-07-31T10:43:24;14.50;;;3.20;;
24421;SDS011;12600;53.326;-6.298;2023-07-31T10:46:14;13.35;;;2.95;;
24421;SDS011;12600;53.326;-6.298;2023-07-31T10:49:05;10.95;;;2.97;;
24421;SDS011;12600;53.326;-6.298;2023-07-31T10:51:55;14.82;;;2.95;;
24421;SDS011;12600;53.326;-6.298;2023-07-31T10:54:45;10.77;;;2.85;;
24421;SDS011;12600;53.326;-6.298;2023-07-31T10:57:35;12.93;;;2.92;;
24421;SDS011;12600;53.326;-6.298;2023-07-31T11:00:25;10.93;;;2.78;;
24421;SDS011;12600;53.326;-6.298;2023-07-31T11:03:17;12.43;;;2.60;;
24421;SDS011;12600;53.326;-6.298;2023-07-31T11:06:09;10.05;;;3.22;;
24421;SDS011;12600;53.326;-6.298;2023-07-31T11:09:02;7.18;;;2.15;;
24421;SDS011;12600;53.326;-6.298;2023-07-31T11:11:53;6.55;;;2.40;;
24421;SDS011;12600;53.326;-6.298;2023-07-31T11:14:43;11.38;;;2.70;;
24421;SDS011;12600;53.326;-6.298;2023-07-31T11:17:32;11.70;;;3.20;;
24421;SDS011;12600;53.326;-6.298;2023-07-31T11:20:21;11.05;;;2.83;;
24421;SDS011;12600;53.326;-6.298;2023-07-31T11:23:12;10.98;;;2.58;;
24421;SDS011;12600;53.326;-6.298;2023-07-31T11:26:04;9.43;;;2.38;;
24421;SDS011;12600;53.326;-6.298;2023-07-31T11:28:54;8.55;;;2.40;;
24421;SDS011;12600;53.326;-6.298;2023-07-31T11:31:43;9.40;;;2.70;;
24421;SDS011;12600;53.326;-6.298;2023-07-31T11:34:37;10.82;;;2.60;;
24421;SDS011;12600;53.326;-6.298;2023-07-31T11:37:40;9.43;;;2.80;;
24421;SDS011;12600;53.326;-6.298;2023-07-31T11:40:32;11.35;;;2.42;;
24421;SDS011;12600;53.326;-6.298;2023-07-31T11:43:30;9.18;;;2.67;;
24421;SDS011;12600;53.326;-6.298;2023-07-31T11:46:20;16.13;;;3.55;;
24421;SDS011;12600;53.326;-6.298;2023-07-31T11:49:10;7.82;;;2.30;;
24421;SDS011;12600;53.326;-6.298;2023-07-31T11:51:59;8.40;;;2.50;;
24421;SDS011;12600;53.326;-6.298;2023-07-31T11:54:49;8.05;;;2.10;;
24421;SDS011;12600;53.326;-6.298;2023-07-31T11:57:41;9.82;;;2.35;;
24421;SDS011;12600;53.326;-6.298;2023-07-31T12:00:33;8.85;;;2.45;;
24421;SDS011;12600;53.326;-6.298;2023-07-31T12:03:23;8.80;;;2.00;;
24421;SDS011;12600;53.326;-6.298;2023-07-31T12:06:13;9.50;;;2.40;;
24421;SDS011;12600;53.326;-6.298;2023-07-31T12:09:03;6.80;;;1.80;;
24421;SDS011;12600;53.326;-6.298;2023-07-31T12:11:53;8.38;;;2.22;;
24421;SDS011;12600;53.326;-6.298;2023-07-31T12:14:43;6.53;;;2.00;;
24421;SDS011;12600;53.326;-6.298;2023-07-31T12:17:33;4.70;;;2.08;;
24421;SDS011;12600;53.326;-6.298;2023-07-31T12:20:22;4.43;;;1.77;;
24421;SDS011;12600;53.326;-6.298;2023-07-31T12:23:12;6.05;;;1.70;;
24421;SDS011;12600;53.326;-6.298;2023-07-31T12:26:04;6.22;;;2.05;;
24421;SDS011;12600;53.326;-6.298;2023-07-31T12:28:55;5.43;;;1.80;;
24421;SDS011;12600;53.326;-6.298;2023-07-31T12:31:45;6.75;;;2.05;;
24421;SDS011;12600;53.326;-6.298;2023-07-31T12:34:35;6.60;;;2.00;;
24421;SDS011;12600;53.326;-6.298;2023-07-31T12:37:32;5.85;;;1.90;;
24421;SDS011;12600;53.326;-6.298;2023-07-31T12:40:21;6.03;;;2.40;;
24421;SDS011;12600;53.326;-6.298;2023-07-31T12:43:19;7.00;;;2.08;;
24421;SDS011;12600;53.326;-6.298;2023-07-31T12:46:08;7.60;;;1.98;;
24421;SDS011;12600;53.326;-6.298;2023-07-31T12:48:59;4.80;;;1.77;;
24421;SDS011;12600;53.326;-6.298;2023-07-31T12:51:48;7.47;;;2.20;;
24421;SDS011;12600;53.326;-6.298;2023-07-31T12:54:38;7.63;;;1.90;;
24421;SDS011;12600;53.326;-6.298;2023-07-31T12:57:27;7.15;;;1.85;;
24421;SDS011;12600;53.326;-6.298;2023-07-31T13:00:16;6.00;;;2.05;;
24421;SDS011;12600;53.326;-6.298;2023-07-31T13:03:06;8.55;;;2.30;;
24421;SDS011;12600;53.326;-6.298;2023-07-31T13:05:57;8.23;;;2.85;;
24421;SDS011;12600;53.326;-6.298;2023-07-31T13:08:46;5.63;;;1.90;;
24421;SDS011;12600;53.326;-6.298;2023-07-31T13:11:36;7.93;;;2.67;;
24421;SDS011;12600;53.326;-6.298;2023-07-31T13:14:25;6.93;;;2.22;;
24421;SDS011;12600;53.326;-6.298;2023-07-31T13:17:15;6.45;;;2.15;;
24421;SDS011;12600;53.326;-6.298;2023-07-31T13:20:05;6.60;;;1.88;;
24421;SDS011;12600;53.326;-6.298;2023-07-31T13:23:02;7.90;;;2.00;;
24421;SDS011;12600;53.326;-6.298;2023-07-31T13:25:51;6.28;;;2.10;;
24421;SDS011;12600;53.326;-6.298;2023-07-31T13:28:41;8.10;;;2.13;;
24421;SDS011;12600;53.326;-6.298;2023-07-31T13:31:30;6.82;;;2.33;;
24421;SDS011;12600;53.326;-6.298;2023-07-31T13:34:19;6.90;;;2.58;;
24421;SDS011;12600;53.326;-6.298;2023-07-31T13:37:09;6.43;;;2.30;;
24421;SDS011;12600;53.326;-6.298;2023-07-31T13:40:00;10.77;;;3.45;;
24421;SDS011;12600;53.326;-6.298;2023-07-31T13:42:52;6.03;;;2.35;;
24421;SDS011;12600;53.326;-6.298;2023-07-31T13:45:41;7.57;;;2.35;;
24421;SDS011;12600;53.326;-6.298;2023-07-31T13:48:31;8.35;;;2.20;;
24421;SDS011;12600;53.326;-6.298;2023-07-31T13:51:20;6.18;;;2.22;;
24421;SDS011;12600;53.326;-6.298;2023-07-31T13:54:10;5.35;;;2.22;;
24421;SDS011;12600;53.326;-6.298;2023-07-31T13:57:02;7.95;;;2.30;;
24421;SDS011;12600;53.326;-6.298;2023-07-31T13:59:51;13.35;;;3.63;;
24421;SDS011;12600;53.326;-6.298;2023-07-31T14:02:41;7.72;;;2.47;;
24421;SDS011;12600;53.326;-6.298;2023-07-31T14:05:30;9.27;;;2.05;;
24421;SDS011;12600;53.326;-6.298;2023-07-31T14:08:20;9.90;;;3.00;;
24421;SDS011;12600;53.326;-6.298;2023-07-31T14:11:09;7.03;;;2.03;;
24421;SDS011;12600;53.326;-6.298;2023-07-31T14:14:00;5.85;;;1.90;;
24421;SDS011;12600;53.326;-6.298;2023-07-31T14:16:49;3.08;;;1.50;;
24421;SDS011;12600;53.326;-6.298;2023-07-31T14:19:39;5.38;;;1.92;;
24421;SDS011;12600;53.326;-6.298;2023-07-31T14:22:29;5.85;;;2.13;;
24421;SDS011;12600;53.326;-6.298;2023-07-31T14:25:20;7.53;;;1.83;;
24421;SDS011;12600;53.326;-6.298;2023-07-31T14:28:10;7.25;;;1.95;;
24421;SDS011;12600;53.326;-6.298;2023-07-31T14:31:00;6.03;;;1.60;;
24421;SDS011;12600;53.326;-6.298;2023-07-31T14:33:50;5.68;;;2.00;;
24421;SDS011;12600;53.326;-6.298;2023-07-31T14:36:42;9.25;;;1.92;;
24421;SDS011;12600;53.326;-6.298;2023-07-31T14:39:33;5.35;;;1.95;;
24421;SDS011;12600;53.326;-6.298;2023-07-31T14:42:26;8.23;;;1.98;;
24421;SDS011;12600;53.326;-6.298;2023-07-31T14:45:15;8.68;;;2.10;;
24421;SDS011;12600;53.326;-6.298;2023-07-31T14:48:06;5.07;;;1.90;;
24421;SDS011;12600;53.326;-6.298;2023-07-31T14:50:55;7.60;;;2.20;;
24421;SDS011;12600;53.326;-6.298;2023-07-31T14:53:45;7.90;;;2.20;;
24421;SDS011;12600;53.326;-6.298;2023-07-31T14:56:34;9.18;;;2.10;;
24421;SDS011;12600;53.326;-6.298;2023-07-31T14:59:24;7.25;;;2.10;;
24421;SDS011;12600;53.326;-6.298;2023-07-31T15:02:15;8.90;;;2.33;;
24421;SDS011;12600;53.326;-6.298;2023-07-31T15:05:06;4.93;;;1.98;;
24421;SDS011;12600;53.326;-6.298;2023-07-31T15:07:56;5.18;;;1.98;;
24421;SDS011;12600;53.326;-6.298;2023-07-31T15:10:45;6.97;;;2.00;;
24421;SDS011;12600;53.326;-6.298;2023-07-31T15:13:35;8.82;;;2.25;;
24421;SDS011;12600;53.326;-6.298;2023-07-31T15:16:24;9.73;;;2.00;;
24421;SDS011;12600;53.326;-6.298;2023-07-31T15:19:16;8.85;;;2.40;;
24421;SDS011;12600;53.326;-6.298;2023-07-31T15:22:07;10.38;;;2.33;;
24421;SDS011;12600;53.326;-6.298;2023-07-31T15:25:00;8.15;;;2.22;;
24421;SDS011;12600;53.326;-6.298;2023-07-31T15:27:52;5.97;;;2.20;;
24421;SDS011;12600;53.326;-6.298;2023-07-31T15:30:41;6.47;;;2.35;;
24421;SDS011;12600;53.326;-6.298;2023-07-31T15:33:31;8.98;;;2.58;;
24421;SDS011;12600;53.326;-6.298;2023-07-31T15:36:21;12.85;;;2.95;;
24421;SDS011;12600;53.326;-6.298;2023-07-31T15:39:12;9.95;;;2.60;;
24421;SDS011;12600;53.326;-6.298;2023-07-31T15:42:01;10.32;;;2.50;;
24421;SDS011;12600;53.326;-6.298;2023-07-31T15:44:51;10.13;;;2.50;;
24421;SDS011;12600;53.326;-6.298;2023-07-31T15:47:41;10.57;;;3.08;;
24421;SDS011;12600;53.326;-6.298;2023-07-31T15:50:30;9.77;;;2.63;;
24421;SDS011;12600;53.326;-6.298;2023-07-31T15:53:19;8.68;;;2.53;;
24421;SDS011;12600;53.326;-6.298;2023-07-31T15:56:10;5.38;;;2.00;;
24421;SDS011;12600;53.326;-6.298;2023-07-31T15:58:59;6.35;;;1.63;;
24421;SDS011;12600;53.326;-6.298;2023-07-31T16:01:49;5.53;;;1.55;;
24421;SDS011;12600;53.326;-6.298;2023-07-31T16:04:39;4.80;;;1.48;;
24421;SDS011;12600;53.326;-6.298;2023-07-31T16:07:29;6.70;;;1.73;;
24421;SDS011;12600;53.326;-6.298;2023-07-31T16:10:18;5.55;;;1.80;;
24421;SDS011;12600;53.326;-6.298;2023-07-31T16:13:09;5.85;;;2.20;;
24421;SDS011;12600;53.326;-6.298;2023-07-31T16:15:58;8.07;;;2.20;;
24421;SDS011;12600;53.326;-6.298;2023-07-31T16:18:48;7.18;;;2.55;;
24421;SDS011;12600;53.326;-6.298;2023-07-31T16:21:37;6.97;;;2.08;;
24421;SDS011;12600;53.326;-6.298;2023-07-31T16:24:27;5.93;;;1.92;;
24421;SDS011;12600;53.326;-6.298;2023-07-31T16:27:16;8.90;;;2.35;;
24421;SDS011;12600;53.326;-6.298;2023-07-31T16:30:08;6.47;;;2.42;;
24421;SDS011;12600;53.326;-6.298;2023-07-31T16:32:58;15.50;;;6.32;;
24421;SDS011;12600;53.326;-6.298;2023-07-31T16:35:50;8.40;;;2.30;;
24421;SDS011;12600;53.326;-6.298;2023-07-31T16:38:43;7.28;;;2.00;;
24421;SDS011;12600;53.326;-6.298;2023-07-31T16:41:36;6.55;;;1.80;;
24421;SDS011;12600;53.326;-6.298;2023-07-31T16:44:25;6.05;;;2.00;;
24421;SDS011;12600;53.326;-6.298;2023-07-31T16:47:16;7.32;;;1.90;;
24421;SDS011;12600;53.326;-6.298;2023-07-31T16:50:05;9.52;;;2.10;;